Time;durP1;ratioP1;P1;durP2;ratioP2;P2;SDS_P1;SDS_P2;PMS_P1;PMS_P2;Temp;Humidity;BMP_temperature;BMP_pressure;BME280_temperature;BME280_humidity;BME280_pressure;Samples;Min_cycle;Max_cycle;Signal;HPM_P1;HPM_P2
2023/09/25 00:01:27;;;;;;;0.70;0.70;;;7.90;99.90;7.70;101765.00;;;;4977265;28;88216;-68
2023/09/25 00:03:53;;;;;;;2.83;1.10;;;7.90;99.90;7.70;101759.00;;;;4990802;28;107298;-68
2023/09/25 00:06:21;;;;;;;1.60;1.50;;;7.80;99.90;7.70;101761.00;;;;4992539;28;89840;-68
2023/09/25 00:08:47;;;;;;;1.43;1.33;;;7.80;99.90;7.70;101758.00;;;;4989032;28;117467;-68
2023/09/25 00:11:12;;;;;;;2.03;1.70;;;7.80;99.90;7.60;101758.00;;;;4989110;28;116824;-68
2023/09/25 00:13:39;;;;;;;4.57;1.53;;;7.70;99.90;7.60;101763.00;;;;4992771;28;88047;-68
2023/09/25 00:16:06;;;;;;;1.77;1.20;;;7.90;99.90;7.60;101764.00;;;;4974066;28;87888;-69
2023/09/25 00:18:32;;;;;;;1.40;1.10;;;7.70;99.90;7.50;101771.00;;;;4991971;28;88037;-68
2023/09/25 00:20:58;;;;;;;2.10;1.60;;;7.70;99.90;7.50;101757.00;;;;4989562;28;116909;-68
2023/09/25 00:23:23;;;;;;;1.60;1.50;;;7.60;99.90;7.50;101752.00;;;;4989886;28;87823;-67
2023/09/25 00:25:50;;;;;;;3.87;1.50;;;7.90;99.90;7.50;101749.00;;;;4970374;28;107645;-67
2023/09/25 00:28:16;;;;;;;3.60;1.33;;;7.60;99.90;7.50;101746.00;;;;4990095;28;87346;-68
2023/09/25 00:30:42;;;;;;;1.47;1.37;;;7.60;99.90;7.40;101746.00;;;;4990024;28;105323;-67
2023/09/25 00:33:07;;;;;;;1.93;1.80;;;7.60;99.90;7.40;101738.00;;;;4988462;28;109382;-67
2023/09/25 00:35:33;;;;;;;2.10;1.77;;;7.50;99.90;7.40;101737.00;;;;4988691;28;108474;-67
2023/09/25 00:37:59;;;;;;;2.20;1.43;;;7.50;99.90;7.40;101734.00;;;;4991444;28;118099;-68
2023/09/25 00:40:25;;;;;;;2.20;1.27;;;7.50;99.90;7.40;101731.00;;;;4991380;28;91143;-67
2023/09/25 00:42:54;;;;;;;2.00;1.70;;;7.80;99.90;7.30;101742.00;;;;4990891;28;87740;-68
2023/09/25 00:45:20;;;;;;;1.43;1.30;;;7.70;99.90;7.30;101745.00;;;;4971142;28;87893;-67
2023/09/25 00:47:46;;;;;;;1.23;1.07;;;7.40;99.90;7.30;101742.00;;;;4991073;28;88692;-69
2023/09/25 00:50:12;;;;;;;1.67;1.17;;;7.40;99.90;7.20;101752.00;;;;4975235;28;118230;-68
2023/09/25 00:52:45;;;;;;;3.50;1.43;;;7.40;99.90;7.20;101743.00;;;;4994304;28;109865;-67
2023/09/25 00:55:13;;;;;;;1.70;1.07;;;7.30;99.90;7.20;101749.00;;;;4993009;28;87702;-68
2023/09/25 00:57:39;;;;;;;1.27;1.13;;;7.40;99.90;7.20;101756.00;;;;4999395;28;94604;-68
2023/09/25 01:00:11;;;;;;;2.60;2.07;;;7.30;99.90;7.10;101758.00;;;;4987771;28;88753;-68
2023/09/25 01:02:38;;;;;;;4.17;2.00;;;7.30;99.90;7.10;101756.00;;;;4991977;27;87910;-68
2023/09/25 01:05:10;;;;;;;1.23;1.20;;;7.50;99.90;7.10;101760.00;;;;4992927;28;87726;-68
2023/09/25 01:07:37;;;;;;;2.87;1.87;;;7.20;99.90;7.10;101750.00;;;;4987305;28;88520;-67
2023/09/25 01:10:15;;;;;;;1.73;1.50;;;7.40;99.90;7.00;101748.00;;;;4990606;28;88844;-68
2023/09/25 01:12:42;;;;;;;1.30;1.20;;;7.20;99.90;7.00;101742.00;;;;4992305;28;87903;-68
2023/09/25 01:15:08;;;;;;;1.67;1.57;;;7.50;99.90;7.00;101738.00;;;;4988427;28;99185;-68
2023/09/25 01:17:34;;;;;;;1.27;1.17;;;7.20;99.90;7.00;101739.00;;;;4978811;28;103784;-68
2023/09/25 01:20:14;;;;;;;1.73;1.47;;;7.10;99.90;6.90;101744.00;;;;4985294;28;90756;-67
2023/09/25 01:22:45;;;;;;;1.40;1.30;;;7.10;99.90;6.90;101738.00;;;;4988296;27;87830;-67
2023/09/25 01:25:15;;;;;;;2.83;1.43;;;7.10;99.90;6.90;101729.00;;;;4974508;28;88772;-66
2023/09/25 01:27:43;;;;;;;1.40;1.30;;;7.00;99.90;6.90;101723.00;;;;4987312;28;88912;-68
2023/09/25 01:30:14;;;;;;;1.17;1.07;;;7.00;99.90;6.80;101736.00;;;;4977177;28;87900;-68
2023/09/25 01:32:42;;;;;;;1.93;1.33;;;7.00;99.90;6.80;101734.00;;;;4987457;28;87728;-66
2023/09/25 01:35:19;;;;;;;3.07;1.83;;;7.00;99.90;6.80;101741.00;;;;4988236;28;87767;-67
2023/09/25 01:37:49;;;;;;;2.83;1.77;;;7.00;99.90;6.80;101734.00;;;;4991449;28;87866;-67
2023/09/25 01:40:18;;;;;;;1.80;1.70;;;6.90;99.90;6.80;101724.00;;;;4986770;28;88497;-68
2023/09/25 01:42:47;;;;;;;2.90;1.73;;;7.20;99.90;6.70;101729.00;;;;4988493;28;86889;-67
2023/09/25 01:45:17;;;;;;;1.57;1.47;;;6.90;99.90;6.70;101725.00;;;;4987409;28;88396;-67
2023/09/25 01:47:49;;;;;;;2.30;2.10;;;7.20;99.90;6.70;101720.00;;;;4970939;28;87969;-67
2023/09/25 01:50:20;;;;;;;3.90;2.70;;;6.90;99.90;6.70;101717.00;;;;4986625;27;88788;-67
2023/09/25 01:52:47;;;;;;;3.43;2.27;;;6.90;99.90;6.70;101711.00;;;;4977301;28;87745;-68
2023/09/25 01:55:14;;;;;;;1.87;1.77;;;6.80;99.90;6.60;101709.00;;;;4989571;28;87888;-67
2023/09/25 01:57:40;;;;;;;2.50;1.73;;;6.80;99.90;6.60;101711.00;;;;4972989;28;89793;-68
2023/09/25 02:00:10;;;;;;;2.20;2.00;;;6.80;99.90;6.50;101709.00;;;;4959122;27;106664;-68
2023/09/25 02:02:37;;;;;;;3.63;2.37;;;6.70;99.90;6.50;101695.00;;;;4988218;28;87850;-67
2023/09/25 02:05:03;;;;;;;3.27;2.47;;;6.60;99.90;6.50;101691.00;;;;4991914;28;87679;-67
2023/09/25 02:07:29;;;;;;;3.40;2.00;;;6.60;99.90;6.40;101691.00;;;;4994340;28;88410;-68
2023/09/25 02:09:54;;;;;;;2.40;2.20;;;6.70;99.90;6.40;101685.00;;;;4975296;28;118031;-66
2023/09/25 02:12:20;;;;;;;3.37;2.20;;;6.50;99.90;6.30;101688.00;;;;4990508;28;109064;-68
2023/09/25 02:14:46;;;;;;;3.33;3.03;;;6.50;99.90;6.30;101694.00;;;;4991752;28;108810;-67
2023/09/25 02:17:14;;;;;;;3.67;2.97;;;6.40;99.90;6.20;101681.00;;;;4996883;28;89055;-67
2023/09/25 02:19:40;;;;;;;2.30;2.03;;;6.40;99.90;6.20;101681.00;;;;4995023;28;117932;-67
2023/09/25 02:22:06;;;;;;;7.40;3.00;;;6.40;99.90;6.10;101685.00;;;;4989586;27;109568;-67
2023/09/25 02:24:34;;;;;;;2.37;2.17;;;6.30;99.90;6.10;101680.00;;;;4988112;28;87782;-66
2023/09/25 02:27:00;;;;;;;3.40;2.43;;;6.30;99.90;6.10;101686.00;;;;4989464;28;89011;-67
2023/09/25 02:29:25;;;;;;;2.40;1.83;;;6.30;99.90;6.10;101686.00;;;;4987595;28;103703;-66
2023/09/25 02:31:51;;;;;;;2.53;2.10;;;6.30;99.90;6.10;101683.00;;;;4991593;28;111129;-67
2023/09/25 02:34:16;;;;;;;2.67;2.30;;;6.60;99.90;6.10;101688.00;;;;4993054;27;107340;-66
2023/09/25 02:36:42;;;;;;;3.60;3.10;;;6.30;99.90;6.10;101688.00;;;;4989247;27;116577;-67
2023/09/25 02:39:10;;;;;;;3.50;2.27;;;6.30;99.90;6.10;101691.00;;;;4988842;28;118521;-67
2023/09/25 02:41:36;;;;;;;6.87;4.10;;;6.30;99.90;6.10;101691.00;;;;4974086;28;88663;-67
2023/09/25 02:44:01;;;;;;;3.77;3.10;;;6.40;99.90;6.10;101687.00;;;;4974281;28;94759;-66
2023/09/25 02:46:27;;;;;;;3.00;2.37;;;6.20;99.90;6.10;101681.00;;;;4995319;28;116987;-68
2023/09/25 02:48:52;;;;;;;3.27;2.47;;;6.30;99.90;6.10;101689.00;;;;4993852;28;116301;-67
2023/09/25 02:51:21;;;;;;;2.13;1.90;;;6.20;99.90;6.10;101689.00;;;;4990310;28;89247;-66
2023/09/25 02:53:47;;;;;;;2.63;2.20;;;6.20;99.90;6.00;101686.00;;;;4993134;28;108952;-66
2023/09/25 02:56:12;;;;;;;3.20;2.33;;;6.40;99.90;6.00;101692.00;;;;4990587;28;116528;-66
2023/09/25 02:58:38;;;;;;;3.37;2.37;;;6.20;99.90;6.00;101685.00;;;;4992895;28;114520;-67
2023/09/25 03:01:04;;;;;;;2.80;2.50;;;6.50;99.90;6.00;101688.00;;;;4971045;28;109389;-67
2023/09/25 03:03:29;;;;;;;1.63;1.53;;;6.20;99.90;6.00;101677.00;;;;4987144;28;107756;-68
2023/09/25 03:05:55;;;;;;;3.20;2.03;;;6.20;99.90;6.00;101681.00;;;;4992649;28;88209;-68
2023/09/25 03:08:21;;;;;;;1.97;1.87;;;6.20;99.90;6.00;101687.00;;;;4992245;28;87769;-68
2023/09/25 03:10:47;;;;;;;3.07;1.73;;;6.50;99.90;6.00;101682.00;;;;4972576;28;109444;-66
2023/09/25 03:13:13;;;;;;;1.73;1.57;;;6.50;99.90;6.00;101675.00;;;;4991508;28;88010;-67
2023/09/25 03:15:39;;;;;;;6.87;2.63;;;6.10;99.90;6.00;101685.00;;;;4992414;28;115477;-67
2023/09/25 03:18:05;;;;;;;4.17;2.33;;;6.20;99.90;6.00;101681.00;;;;4990690;28;120673;-67
2023/09/25 03:20:31;;;;;;;3.67;2.13;;;6.10;99.90;5.90;101682.00;;;;4998309;27;87461;-67
2023/09/25 03:22:56;;;;;;;3.20;1.80;;;6.10;99.90;5.90;101685.00;;;;4999296;28;107684;-67
2023/09/25 03:25:22;;;;;;;2.70;2.07;;;6.10;99.90;5.90;101684.00;;;;4991617;27;116342;-67
2023/09/25 03:27:49;;;;;;;4.03;1.80;;;6.40;99.90;5.90;101682.00;;;;4996187;28;117547;-67
2023/09/25 03:30:16;;;;;;;2.47;2.27;;;6.00;99.90;5.90;101683.00;;;;4990649;28;89442;-67
2023/09/25 03:32:43;;;;;;;4.03;3.10;;;6.00;99.90;5.90;101666.00;;;;4989495;28;87861;-67
2023/09/25 03:35:10;;;;;;;2.13;1.93;;;6.00;99.90;5.80;101674.00;;;;4993249;28;87980;-67
2023/09/25 03:37:36;;;;;;;2.80;1.80;;;6.00;99.90;5.80;101678.00;;;;4992168;28;88950;-67
2023/09/25 03:40:07;;;;;;;2.77;2.37;;;6.00;99.90;5.80;101674.00;;;;4991859;27;104126;-67
2023/09/25 03:42:34;;;;;;;1.73;1.63;;;6.00;99.90;5.80;101666.00;;;;4994894;28;87929;-68
2023/09/25 03:45:00;;;;;;;2.73;1.83;;;5.90;99.90;5.80;101682.00;;;;4974252;28;87332;-67
2023/09/25 03:47:25;;;;;;;1.70;1.40;;;6.00;99.90;5.70;101675.00;;;;4994197;28;105833;-67
2023/09/25 03:49:51;;;;;;;2.63;1.80;;;5.90;99.90;5.70;101670.00;;;;4991442;28;89092;-68
2023/09/25 03:52:17;;;;;;;2.63;2.20;;;5.90;99.90;5.70;101687.00;;;;4984733;28;109034;-67
2023/09/25 03:54:43;;;;;;;2.47;1.97;;;5.80;99.90;5.70;101671.00;;;;4974441;28;88173;-68
2023/09/25 03:57:08;;;;;;;2.63;2.30;;;5.80;99.90;5.60;101674.00;;;;4989480;28;88757;-67
2023/09/25 03:59:34;;;;;;;6.17;2.07;;;5.80;99.90;5.60;101670.00;;;;4989326;27;110445;-67
2023/09/25 04:01:59;;;;;;;3.77;1.97;;;6.00;99.90;5.60;101666.00;;;;4990567;28;108830;-67
2023/09/25 04:04:25;;;;;;;2.33;2.03;;;5.80;99.90;5.60;101667.00;;;;4989499;28;117824;-67
2023/09/25 04:06:51;;;;;;;2.87;1.60;;;6.20;99.90;5.60;101661.00;;;;4968212;28;118706;-67
2023/09/25 04:09:16;;;;;;;3.10;2.10;;;5.70;99.90;5.60;101667.00;;;;4988621;28;110531;-67
2023/09/25 04:11:42;;;;;;;1.97;1.50;;;5.80;99.90;5.50;101658.00;;;;4989661;28;108694;-66
2023/09/25 04:14:08;;;;;;;3.47;2.47;;;5.70;99.90;5.50;101660.00;;;;4986962;28;117793;-67
2023/09/25 04:16:33;;;;;;;3.40;3.03;;;5.70;99.90;5.50;101664.00;;;;4988886;28;88978;-67
2023/09/25 04:18:59;;;;;;;5.47;3.90;;;5.60;99.90;5.40;101655.00;;;;4989103;28;109997;-66
2023/09/25 04:21:25;;;;;;;8.50;2.97;;;5.60;99.90;5.40;101658.00;;;;4990851;28;100013;-67
2023/09/25 04:23:51;;;;;;;2.47;2.27;;;6.00;99.90;5.40;101656.00;;;;4989702;28;88249;-67
2023/09/25 04:26:17;;;;;;;2.63;2.40;;;5.60;99.90;5.30;101648.00;;;;4986280;28;101829;-66
2023/09/25 04:28:43;;;;;;;3.33;2.67;;;5.60;99.90;5.30;101666.00;;;;4992190;28;109893;-67
2023/09/25 04:31:12;;;;;;;3.20;2.10;;;5.50;99.90;5.30;101663.00;;;;4991492;28;88098;-67
2023/09/25 04:33:38;;;;;;;2.80;2.43;;;5.50;99.90;5.30;101666.00;;;;4990516;28;88416;-69
2023/09/25 04:36:08;;;;;;;3.20;2.80;;;5.50;99.90;5.30;101656.00;;;;4965031;28;87903;-69
2023/09/25 04:38:46;;;;;;;2.80;1.80;;;5.40;99.90;5.20;101669.00;;;;4975303;27;87931;-68
2023/09/25 04:41:12;;;;;;;3.10;2.37;;;5.80;99.90;5.20;101661.00;;;;4992115;28;88883;-67
2023/09/25 04:43:37;;;;;;;3.87;2.43;;;5.40;99.90;5.20;101669.00;;;;4996619;28;88684;-68
2023/09/25 04:46:03;;;;;;;3.23;2.60;;;5.40;99.90;5.20;101662.00;;;;4993711;28;87856;-68
2023/09/25 04:48:31;;;;;;;2.00;1.80;;;5.40;99.90;5.20;101659.00;;;;4992055;28;88001;-67
2023/09/25 04:50:57;;;;;;;3.03;2.27;;;5.30;99.90;5.20;101660.00;;;;4991359;28;87755;-68
2023/09/25 04:53:23;;;;;;;5.80;2.87;;;5.30;99.90;5.20;101661.00;;;;4969858;28;87868;-67
2023/09/25 04:55:49;;;;;;;3.13;2.57;;;5.40;99.90;5.20;101663.00;;;;4989159;27;116093;-67
2023/09/25 04:58:14;;;;;;;3.00;2.67;;;5.30;99.90;5.20;101656.00;;;;4989238;28;88244;-69
2023/09/25 05:00:41;;;;;;;3.13;2.60;;;5.30;99.90;5.10;101670.00;;;;4993152;28;87601;-68
2023/09/25 05:03:07;;;;;;;3.50;1.93;;;5.30;99.90;5.20;101665.00;;;;4975899;28;88792;-70
2023/09/25 05:05:33;;;;;;;4.43;3.03;;;5.30;99.90;5.20;101662.00;;;;4975933;28;88754;-67
2023/09/25 05:07:59;;;;;;;4.77;2.80;;;5.30;99.90;5.20;101665.00;;;;4973153;28;107131;-68
2023/09/25 05:10:29;;;;;;;4.23;2.80;;;5.30;99.90;5.20;101663.00;;;;4990216;28;87955;-67
2023/09/25 05:12:56;;;;;;;4.43;2.87;;;5.40;99.90;5.20;101658.00;;;;4970755;28;87849;-67
2023/09/25 05:15:23;;;;;;;2.77;2.30;;;5.40;99.90;5.20;101666.00;;;;4987717;28;88047;-67
2023/09/25 05:17:49;;;;;;;2.67;2.43;;;5.40;99.90;5.20;101668.00;;;;4991328;28;88110;-67
2023/09/25 05:20:22;;;;;;;2.80;2.30;;;5.40;99.90;5.20;101657.00;;;;4992534;28;88023;-68
2023/09/25 05:22:53;;;;;;;3.47;2.20;;;5.40;99.90;5.20;101674.00;;;;4991148;28;87284;-68
2023/09/25 05:25:20;;;;;;;2.80;2.40;;;5.40;99.90;5.20;101657.00;;;;4982704;28;105732;-67
2023/09/25 05:27:49;;;;;;;2.23;2.00;;;5.40;99.90;5.30;101663.00;;;;4987871;28;87761;-67
2023/09/25 05:30:17;;;;;;;3.27;2.77;;;5.40;99.90;5.40;101671.00;;;;4992783;28;88846;-67
2023/09/25 05:32:45;;;;;;;3.37;2.50;;;5.50;99.90;5.50;101665.00;;;;4988163;28;88916;-68
2023/09/25 05:35:11;;;;;;;3.60;3.30;;;5.60;99.90;5.50;101668.00;;;;4987006;28;102354;-67
2023/09/25 05:37:39;;;;;;;6.73;4.20;;;5.70;99.90;5.60;101670.00;;;;4987670;28;99739;-66
2023/09/25 05:40:09;;;;;;;4.43;3.17;;;5.70;99.90;5.70;101673.00;;;;4990332;28;87823;-68
2023/09/25 05:42:36;;;;;;;3.60;3.23;;;5.80;99.90;5.80;101660.00;;;;4991314;28;87697;-67
2023/09/25 05:45:01;;;;;;;4.10;3.30;;;6.10;99.90;5.80;101663.00;;;;4994198;28;88857;-67
2023/09/25 05:47:27;;;;;;;4.77;4.10;;;6.30;99.90;6.00;101659.00;;;;4990053;27;99127;-67
2023/09/25 05:49:53;;;;;;;5.23;3.83;;;6.20;99.90;6.10;101668.00;;;;4990535;28;109660;-66
2023/09/25 05:52:18;;;;;;;4.77;4.30;;;6.20;99.90;6.20;101669.00;;;;4989166;28;88162;-66
2023/09/25 05:54:45;;;;;;;7.20;3.20;;;6.30;99.90;6.30;101674.00;;;;4985111;27;116702;-66
2023/09/25 05:57:11;;;;;;;5.57;4.20;;;6.40;99.90;6.40;101660.00;;;;4993171;28;88987;-67
2023/09/25 05:59:36;;;;;;;5.10;3.80;;;6.40;99.90;6.50;101661.00;;;;4987524;28;107238;-66
2023/09/25 06:02:02;;;;;;;5.27;3.37;;;6.60;99.90;6.60;101661.00;;;;4985916;28;118900;-67
2023/09/25 06:04:29;;;;;;;4.30;3.83;;;7.10;99.90;6.80;101666.00;;;;4992110;28;96705;-66
2023/09/25 06:06:55;;;;;;;4.40;4.00;;;6.80;99.90;7.00;101672.00;;;;4991992;28;101061;-67
2023/09/25 06:09:21;;;;;;;5.07;4.23;;;7.10;99.90;7.20;101666.00;;;;4991076;28;87965;-67
2023/09/25 06:11:48;;;;;;;7.33;4.03;;;7.20;99.90;7.40;101666.00;;;;4988678;28;106941;-67
2023/09/25 06:14:14;;;;;;;5.10;3.57;;;7.40;99.90;7.70;101666.00;;;;4990220;28;89427;-67
2023/09/25 06:16:40;;;;;;;4.57;3.57;;;8.00;99.90;8.00;101681.00;;;;4989196;28;111480;-67
2023/09/25 06:19:06;;;;;;;9.93;3.50;;;8.00;99.90;8.30;101679.00;;;;4989067;28;88712;-67
2023/09/25 06:21:35;;;;;;;6.43;4.57;;;8.30;99.90;8.70;101684.00;;;;4989279;28;88007;-67
2023/09/25 06:24:03;;;;;;;4.97;3.27;;;8.60;99.90;9.00;101688.00;;;;4967624;28;89212;-67
2023/09/25 06:26:29;;;;;;;3.53;3.20;;;8.90;99.90;9.30;101699.00;;;;4985543;28;87583;-66
2023/09/25 06:28:55;;;;;;;4.80;3.50;;;9.30;99.90;9.70;101698.00;;;;4991257;28;88037;-68
2023/09/25 06:31:22;;;;;;;3.40;2.97;;;9.60;99.90;10.00;101690.00;;;;4993944;28;95309;-67
2023/09/25 06:33:48;;;;;;;5.87;3.43;;;9.90;99.90;10.40;101697.00;;;;4989057;28;87975;-67
2023/09/25 06:36:14;;;;;;;9.60;2.90;;;10.30;99.90;10.70;101698.00;;;;4992378;28;87056;-66
2023/09/25 06:38:40;;;;;;;4.77;3.07;;;10.60;99.90;11.00;101703.00;;;;4990618;28;87583;-67
2023/09/25 06:41:05;;;;;;;3.07;2.27;;;10.90;99.90;11.30;101690.00;;;;4990606;28;117130;-67
2023/09/25 06:43:34;;;;;;;3.73;3.10;;;11.30;99.90;11.70;101697.00;;;;4989536;28;119007;-66
2023/09/25 06:45:59;;;;;;;3.57;2.40;;;11.60;99.90;12.00;101694.00;;;;4987150;28;109578;-66
2023/09/25 06:48:25;;;;;;;2.60;2.23;;;11.90;99.90;12.40;101703.00;;;;4993545;28;87898;-66
2023/09/25 06:50:51;;;;;;;4.90;2.73;;;12.20;99.90;12.70;101695.00;;;;4990419;28;89054;-67
2023/09/25 06:53:17;;;;;;;2.60;2.30;;;12.60;99.90;13.10;101701.00;;;;4987304;27;117338;-68
2023/09/25 06:55:44;;;;;;;2.33;2.03;;;12.90;99.90;13.50;101699.00;;;;4988872;28;87766;-67
2023/09/25 06:58:10;;;;;;;2.83;2.30;;;13.30;99.90;13.80;101703.00;;;;4992288;28;87982;-68
2023/09/25 07:00:36;;;;;;;2.20;2.00;;;13.60;99.90;14.10;101709.00;;;;4990764;27;92749;-67
2023/09/25 07:03:02;;;;;;;5.00;2.50;;;13.90;99.90;14.30;101699.00;;;;4990858;28;118120;-67
2023/09/25 07:05:28;;;;;;;3.13;2.43;;;14.20;99.90;14.70;101706.00;;;;4992464;28;97669;-67
2023/09/25 07:07:56;;;;;;;3.97;2.03;;;14.50;99.90;15.00;101713.00;;;;4989934;28;88656;-66
2023/09/25 07:10:22;;;;;;;2.80;2.33;;;14.80;99.90;15.30;101701.00;;;;4992051;28;88629;-67
2023/09/25 07:12:47;;;;;;;3.37;1.97;;;15.10;99.90;15.70;101702.00;;;;4991263;28;88834;-67
2023/09/25 07:15:13;;;;;;;3.00;2.30;;;15.50;99.90;16.00;101696.00;;;;4994811;28;103783;-67
2023/09/25 07:17:39;;;;;;;2.72;2.38;;;15.80;99.90;16.20;101699.00;;;;4996590;28;108142;-67
2023/09/25 07:20:05;;;;;;;3.30;3.00;;;16.00;99.90;16.50;101705.00;;;;4994752;28;98746;-67
2023/09/25 07:22:31;;;;;;;4.60;2.75;;;16.30;99.90;16.90;101694.00;;;;4992281;28;109608;-67
2023/09/25 07:24:57;;;;;;;2.70;2.50;;;16.70;99.90;17.20;101698.00;;;;4994075;28;86964;-68
2023/09/25 07:27:23;;;;;;;2.25;2.08;;;17.00;99.90;17.50;101698.00;;;;4974935;28;87806;-66
2023/09/25 07:29:49;;;;;;;3.75;2.28;;;17.30;99.90;17.80;101704.00;;;;4990439;28;115547;-66
2023/09/25 07:32:15;;;;;;;3.45;2.40;;;17.60;99.90;18.10;101701.00;;;;4990557;28;88990;-67
2023/09/25 07:34:43;;;;;;;2.00;1.80;;;17.90;99.90;18.30;101702.00;;;;4992349;28;87916;-67
2023/09/25 07:37:09;;;;;;;3.08;1.83;;;18.10;99.90;18.60;101708.00;;;;4988591;28;88102;-67
2023/09/25 07:39:39;;;;;;;1.90;1.80;;;18.30;99.90;18.80;101708.00;;;;4990526;28;88809;-67
2023/09/25 07:42:06;;;;;;;2.75;2.00;;;18.60;99.90;19.00;101700.00;;;;4988463;28;88559;-67
2023/09/25 07:44:34;;;;;;;3.28;2.28;;;18.80;99.90;19.20;101702.00;;;;4993967;28;100290;-66
2023/09/25 07:47:06;;;;;;;2.10;1.73;;;19.00;99.90;19.40;101692.00;;;;4992698;28;87594;-66
2023/09/25 07:49:38;;;;;;;3.55;1.92;;;19.20;99.90;19.60;101692.00;;;;4995248;28;87767;-67
2023/09/25 07:52:15;;;;;;;3.80;2.22;;;19.40;99.70;19.70;101688.00;;;;4990394;28;88365;-65
2023/09/25 07:54:48;;;;;;;2.85;2.08;;;19.50;98.60;19.70;101693.00;;;;4992172;28;87880;-65
2023/09/25 07:57:15;;;;;;;1.92;1.80;;;19.50;98.00;19.70;101693.00;;;;4989280;28;88990;-67
2023/09/25 07:59:42;;;;;;;1.90;1.80;;;19.50;98.10;19.90;101694.00;;;;4991551;28;87857;-65
2023/09/25 08:02:20;;;;;;;3.28;2.33;;;19.70;98.10;20.20;101694.00;;;;4992071;28;88037;-65
2023/09/25 08:04:49;;;;;;;3.10;2.10;;;19.90;98.10;20.50;101684.00;;;;4997758;28;87735;-66
2023/09/25 08:07:15;;;;;;;1.73;1.63;;;20.20;98.00;20.80;101685.00;;;;4994390;28;93471;-65
2023/09/25 08:09:41;;;;;;;3.08;2.15;;;20.50;97.60;21.10;101688.00;;;;4994117;28;117927;-65
2023/09/25 08:12:07;;;;;;;1.63;1.52;;;20.80;96.60;21.40;101685.00;;;;4980396;28;88151;-65
2023/09/25 08:14:33;;;;;;;2.05;1.95;;;21.10;96.00;21.50;101685.00;;;;4993728;27;111191;-65
2023/09/25 08:16:59;;;;;;;1.90;1.80;;;21.30;94.70;21.70;101686.00;;;;4993278;28;109460;-66
2023/09/25 08:19:24;;;;;;;1.30;1.17;;;21.40;93.80;21.80;101696.00;;;;4994464;28;117561;-65
2023/09/25 08:21:51;;;;;;;3.67;1.83;;;21.80;93.10;21.90;101690.00;;;;4996304;28;116363;-66
2023/09/25 08:24:17;;;;;;;1.63;1.33;;;21.60;91.70;21.70;101686.00;;;;4993076;28;87596;-68
2023/09/25 08:26:46;;;;;;;2.47;1.88;;;21.60;92.00;21.80;101687.00;;;;4992487;28;87543;-65
2023/09/25 08:29:16;;;;;;;2.10;1.73;;;21.60;91.90;21.90;101692.00;;;;4990196;28;88049;-65
2023/09/25 08:31:45;;;;;;;1.55;1.13;;;21.70;91.70;22.20;101689.00;;;;4993204;28;87896;-66
2023/09/25 08:34:11;;;;;;;1.67;1.42;;;22.00;91.70;22.40;101685.00;;;;4993412;28;88515;-66
2023/09/25 08:36:38;;;;;;;1.63;1.48;;;22.20;90.60;22.60;101690.00;;;;4990732;28;100616;-66
2023/09/25 08:39:04;;;;;;;4.95;1.80;;;22.30;90.20;22.70;101683.00;;;;4994477;28;87237;-66
2023/09/25 08:41:31;;;;;;;1.70;1.45;;;22.50;88.80;22.90;101684.00;;;;4994755;28;88224;-66
2023/09/25 08:43:57;;;;;;;2.88;1.00;;;22.60;88.50;23.00;101684.00;;;;4975995;28;87769;-66
2023/09/25 08:46:25;;;;;;;1.77;1.25;;;22.80;86.90;23.30;101692.00;;;;4996778;28;88697;-67
2023/09/25 08:48:56;;;;;;;2.65;1.98;;;22.90;83.80;23.20;101685.00;;;;4992352;28;98207;-67
2023/09/25 08:51:24;;;;;;;3.20;2.10;;;23.00;82.60;23.30;101682.00;;;;4994750;28;88337;-67
2023/09/25 08:53:51;;;;;;;0.85;0.85;;;23.00;83.20;23.50;101692.00;;;;4994822;27;88033;-67
2023/09/25 08:56:19;;;;;;;1.77;1.38;;;23.10;83.80;23.80;101689.00;;;;4991191;28;88117;-66
2023/09/25 08:58:49;;;;;;;2.78;1.33;;;23.40;83.40;24.00;101686.00;;;;4992637;28;89048;-66
2023/09/25 09:01:15;;;;;;;1.33;1.05;;;23.60;81.00;24.10;101686.00;;;;4977597;28;88436;-65
2023/09/25 09:03:40;;;;;;;2.53;1.33;;;23.80;81.30;24.40;101682.00;;;;4973606;28;87185;-65
2023/09/25 09:06:06;;;;;;;1.67;1.25;;;24.00;80.70;24.70;101682.00;;;;4993642;28;108729;-68
2023/09/25 09:08:31;;;;;;;1.13;1.00;;;24.30;80.20;25.00;101680.00;;;;4988827;28;117155;-68
2023/09/25 09:10:59;;;;;;;1.60;1.10;;;24.60;80.10;25.40;101686.00;;;;4989000;28;99497;-68
2023/09/25 09:13:24;;;;;;;3.10;1.58;;;25.00;79.60;25.90;101681.00;;;;4987480;27;88047;-68
2023/09/25 09:15:50;;;;;;;1.88;1.33;;;25.40;77.30;26.10;101684.00;;;;4974852;28;87741;-67
2023/09/25 09:18:23;;;;;;;1.30;1.00;;;25.70;73.40;26.20;101682.00;;;;4992373;28;117423;-66
2023/09/25 09:20:49;;;;;;;1.27;1.00;;;25.80;71.30;26.30;101675.00;;;;4990264;28;88848;-67
2023/09/25 09:23:15;;;;;;;2.33;1.00;;;25.90;71.20;26.50;101670.00;;;;4991036;28;87789;-67
2023/09/25 09:25:48;;;;;;;1.10;1.02;;;26.10;70.00;26.70;101672.00;;;;4989491;28;88093;-68
2023/09/25 09:28:14;;;;;;;1.50;0.98;;;26.30;67.50;26.90;101670.00;;;;4990550;28;108908;-67
2023/09/25 09:30:41;;;;;;;1.48;1.08;;;26.40;63.40;26.60;101674.00;;;;4992007;28;87825;-67
2023/09/25 09:33:10;;;;;;;1.63;1.10;;;26.30;61.50;26.30;101668.00;;;;4989362;28;87901;-67
2023/09/25 09:35:37;;;;;;;3.60;0.80;;;26.00;60.90;26.20;101671.00;;;;4973144;28;88537;-67
2023/09/25 09:38:05;;;;;;;0.95;0.68;;;25.80;61.50;26.20;101671.00;;;;4989665;28;118313;-66
2023/09/25 09:40:31;;;;;;;0.90;0.60;;;25.80;60.70;26.50;101666.00;;;;4987757;28;88632;-67
2023/09/25 09:42:58;;;;;;;0.75;0.65;;;25.90;62.30;26.80;101677.00;;;;4991852;28;87804;-67
2023/09/25 09:45:27;;;;;;;1.23;1.00;;;26.20;61.30;27.10;101680.00;;;;4990068;28;88411;-67
2023/09/25 09:47:56;;;;;;;2.22;1.13;;;26.50;61.90;27.40;101675.00;;;;4989073;28;88563;-67
2023/09/25 09:50:27;;;;;;;0.40;0.40;;;26.80;61.70;27.70;101674.00;;;;4989126;27;88676;-67
2023/09/25 09:52:53;;;;;;;0.68;0.63;;;27.20;60.70;27.80;101670.00;;;;4992460;28;87034;-67
2023/09/25 09:55:21;;;;;;;0.82;0.77;;;27.30;60.70;28.00;101658.00;;;;4990255;28;102387;-68
2023/09/25 09:57:49;;;;;;;1.55;0.80;;;27.50;57.80;27.80;101668.00;;;;4988241;28;103486;-67
2023/09/25 10:00:15;;;;;;;0.75;0.45;;;27.40;56.70;27.70;101659.00;;;;4975540;28;88814;-67
2023/09/25 10:02:43;;;;;;;0.65;0.43;;;27.30;56.60;27.70;101653.00;;;;4991841;28;87757;-66
2023/09/25 10:05:13;;;;;;;0.65;0.57;;;27.30;56.50;27.90;101644.00;;;;4982886;28;87738;-66
2023/09/25 10:08:11;;;;;;;0.65;0.65;;;27.40;56.70;28.00;101643.00;;;;4970035;28;88188;-66
2023/09/25 10:10:38;;;;;;;0.60;0.52;;;27.50;54.00;28.00;101649.00;;;;4976107;28;87926;-68
2023/09/25 10:13:11;;;;;;;0.90;0.80;;;27.40;53.90;27.80;101643.00;;;;4980772;28;88093;-69
2023/09/25 10:15:38;;;;;;;0.50;0.50;;;27.40;54.10;27.80;101645.00;;;;4967787;28;97673;-70
2023/09/25 10:18:06;;;;;;;2.10;0.80;;;27.30;54.00;27.90;101641.00;;;;4987180;28;88089;-69
2023/09/25 10:20:41;;;;;;;1.05;0.85;;;27.30;54.80;28.00;101632.00;;;;4987817;28;89105;-69
2023/09/25 10:23:06;;;;;;;0.65;0.65;;;27.50;53.20;27.90;101642.00;;;;4989173;28;88024;-69
2023/09/25 10:25:57;;;;;;;0.60;0.52;;;27.40;53.20;27.60;101648.00;;;;4986060;28;100306;-69
2023/09/25 10:28:37;;;;;;;1.27;0.52;;;27.20;52.80;27.30;101640.00;;;;4987762;28;87871;-69
2023/09/25 10:31:18;;;;;;;0.77;0.60;;;26.90;53.30;27.10;101632.00;;;;4972939;28;87712;-69
2023/09/25 10:33:58;;;;;;;1.02;0.57;;;26.70;53.80;27.10;101651.00;;;;4970700;28;87689;-68
2023/09/25 10:36:39;;;;;;;0.47;0.40;;;26.60;54.30;27.10;101648.00;;;;4989087;27;102541;-69
2023/09/25 10:39:08;;;;;;;0.68;0.52;;;27.40;54.60;27.00;101651.00;;;;4973091;28;100820;-69
2023/09/25 10:41:33;;;;;;;0.73;0.73;;;26.50;54.50;27.00;101654.00;;;;4972809;28;87974;-70
2023/09/25 10:44:00;;;;;;;2.08;0.55;;;26.50;54.30;26.90;101645.00;;;;4966693;28;102961;-70
2023/09/25 10:46:26;;;;;;;0.73;0.73;;;26.50;53.70;26.70;101633.00;;;;4957818;28;87862;-70
2023/09/25 10:48:54;;;;;;;1.23;0.65;;;26.30;54.20;26.70;101631.00;;;;4989249;28;117342;-69
2023/09/25 10:51:20;;;;;;;1.08;0.73;;;26.20;54.30;26.30;101633.00;;;;4976140;28;88857;-69
2023/09/25 10:53:46;;;;;;;0.57;0.57;;;26.00;54.00;26.00;101637.00;;;;4994561;28;87789;-69